createdAt,value
2019-05-13T00:01:34.477Z,98.50
2019-05-13T00:04:03.600Z,98.60
2019-05-13T00:06:34.293Z,98.70
2019-05-13T00:09:04.593Z,98.80
2019-05-13T00:11:34.618Z,98.90
2019-05-13T00:14:04.432Z,99.00
2019-05-13T00:16:34.110Z,98.90
2019-05-13T00:19:04.121Z,98.90
2019-05-13T00:21:33.900Z,98.80
2019-05-13T00:24:04.157Z,98.80
2019-05-13T00:26:33.750Z,98.80
2019-05-13T00:29:04.148Z,98.90
2019-05-13T00:31:33.618Z,99.10
2019-05-13T00:34:03.686Z,99.20
2019-05-13T00:36:33.719Z,98.60
2019-05-13T00:39:03.914Z,98.30
2019-05-13T00:41:33.651Z,98.30
2019-05-13T00:44:03.796Z,98.60
2019-05-13T00:46:33.995Z,98.40
2019-05-13T00:49:04.578Z,98.20
2019-05-13T00:51:33.778Z,98.50
2019-05-13T00:54:04.367Z,98.70
2019-05-13T00:56:34.500Z,98.20
2019-05-13T00:59:03.699Z,98.40
2019-05-13T01:01:33.522Z,98.50
2019-05-13T01:04:04.010Z,98.60
2019-05-13T01:06:34.150Z,98.70
2019-05-13T01:09:04.161Z,99.20
2019-05-13T01:11:34.360Z,98.90
2019-05-13T01:14:04.296Z,99.10
2019-05-13T01:16:34.069Z,99.20
2019-05-13T01:19:04.185Z,99.20
2019-05-13T01:21:34.500Z,99.20
2019-05-13T01:24:03.791Z,99.20
2019-05-13T01:26:33.780Z,99.50
2019-05-13T01:29:04.172Z,99.50
2019-05-13T01:31:34.374Z,99.50
2019-05-13T01:34:04.006Z,99.20
2019-05-13T01:36:34.043Z,99.00
2019-05-13T01:39:04.653Z,99.10
2019-05-13T01:41:33.501Z,99.10
2019-05-13T01:44:03.953Z,99.20
2019-05-13T01:46:34.526Z,99.10
2019-05-13T01:49:04.789Z,99.00
2019-05-13T01:51:33.469Z,99.10
2019-05-13T01:54:04.195Z,99.10
2019-05-13T01:56:33.953Z,99.00
2019-05-13T01:59:03.656Z,99.00
2019-05-13T02:01:33.689Z,99.10
2019-05-13T02:04:03.984Z,99.10
2019-05-13T02:06:33.565Z,99.00
2019-05-13T02:09:03.949Z,99.00
2019-05-13T02:11:34.111Z,98.70
2019-05-13T02:14:05.442Z,98.60
2019-05-13T02:16:33.920Z,98.50
2019-05-13T02:19:03.840Z,98.50
2019-05-13T02:21:33.658Z,98.50
2019-05-13T02:24:04.392Z,98.80
2019-05-13T02:26:34.532Z,99.00
2019-05-13T02:29:03.718Z,99.10
2019-05-13T02:31:45.316Z,99.10
2019-05-13T02:34:02.847Z,98.50
2019-05-13T02:36:33.003Z,98.10
2019-05-13T02:39:02.645Z,98.40
2019-05-13T02:41:33.912Z,99.10
2019-05-13T02:44:03.447Z,99.40
2019-05-13T02:46:33.814Z,99.50
2019-05-13T02:49:03.219Z,99.60
2019-05-13T02:51:32.844Z,99.50
2019-05-13T02:54:03.613Z,99.60
2019-05-13T02:56:33.063Z,99.70
2019-05-13T02:59:03.926Z,99.80
2019-05-13T03:01:33.166Z,99.90
2019-05-13T03:04:03.120Z,99.90
2019-05-13T03:06:33.210Z,99.70
2019-05-13T03:09:03.133Z,99.70
2019-05-13T03:11:33.150Z,99.90
2019-05-13T03:14:03.632Z,99.80
2019-05-13T03:16:42.618Z,99.70
2019-05-13T03:19:13.252Z,99.40
2019-05-13T03:21:42.808Z,99.60
2019-05-13T03:24:12.997Z,99.50
2019-05-13T03:26:42.772Z,99.70
2019-05-13T03:29:13.247Z,99.70
2019-05-13T03:31:45.604Z,99.80
2019-05-13T03:34:15.891Z,99.80
2019-05-13T03:36:46.137Z,99.80
2019-05-13T03:39:16.020Z,99.70
2019-05-13T03:41:43.039Z,99.80
2019-05-13T03:44:13.628Z,99.90
2019-05-13T03:46:42.721Z,99.90
2019-05-13T03:49:13.741Z,99.90
2019-05-13T03:51:43.003Z,99.90
2019-05-13T03:54:12.959Z,99.90
2019-05-13T03:56:42.583Z,99.90
2019-05-13T03:59:13.380Z,99.90
2019-05-13T04:01:42.761Z,99.90
2019-05-13T04:04:12.619Z,99.90
2019-05-13T04:06:42.935Z,99.90
2019-05-13T04:09:22.340Z,99.90
2019-05-13T04:11:42.463Z,99.90
2019-05-13T04:14:12.561Z,99.90
2019-05-13T04:16:42.811Z,99.90
2019-05-13T04:19:12.344Z,99.90
2019-05-13T04:21:42.918Z,99.90
2019-05-13T04:24:12.235Z,99.90
2019-05-13T04:26:43.235Z,99.90
2019-05-13T04:29:13.277Z,99.90
2019-05-13T04:31:42.370Z,99.90
2019-05-13T04:34:12.370Z,99.90
2019-05-13T04:36:42.998Z,99.90
2019-05-13T04:39:12.951Z,99.90
2019-05-13T04:41:42.495Z,99.90
2019-05-13T04:44:13.124Z,99.90
2019-05-13T04:46:43.359Z,99.90
2019-05-13T04:49:12.526Z,99.90
2019-05-13T04:51:42.093Z,99.80
2019-05-13T04:54:12.956Z,99.60
2019-05-13T04:56:42.186Z,98.90
2019-05-13T04:59:12.561Z,98.50
2019-05-13T05:02:17.720Z,97.90
2019-05-13T05:05:12.642Z,97.40
2019-05-13T05:08:12.141Z,97.40
2019-05-13T05:11:22.183Z,97.40
2019-05-13T05:14:12.158Z,97.30
2019-05-13T05:16:46.127Z,97.60
2019-05-13T05:19:24.141Z,97.50
2019-05-13T05:22:13.434Z,97.30
2019-05-13T05:24:47.272Z,96.90
2019-05-13T05:27:42.097Z,96.10
2019-05-13T05:30:41.189Z,96.00
2019-05-13T05:33:43.193Z,95.90
2019-05-13T05:36:34.155Z,96.00
2019-05-13T05:39:12.299Z,95.80
2019-05-13T05:41:43.272Z,94.90
2019-05-13T05:44:12.966Z,94.20
2019-05-13T05:46:42.744Z,92.40
2019-05-13T05:49:12.709Z,91.20
2019-05-13T05:51:42.947Z,90.70
2019-05-13T05:54:14.382Z,90.00
2019-05-13T05:56:41.898Z,90.00
2019-05-13T05:59:12.531Z,89.10
2019-05-13T06:01:42.872Z,88.60
2019-05-13T06:04:12.590Z,87.80
2019-05-13T06:06:42.131Z,87.10
2019-05-13T06:09:12.204Z,86.30
2019-05-13T06:11:41.726Z,85.00
2019-05-13T06:14:11.306Z,84.10
2019-05-13T06:16:42.398Z,83.60
2019-05-13T06:19:12.106Z,83.50
2019-05-13T06:21:42.035Z,81.60
2019-05-13T06:24:11.696Z,80.20
2019-05-13T06:26:42.017Z,80.40
2019-05-13T06:29:11.822Z,78.70
2019-05-13T06:31:41.969Z,77.20
2019-05-13T06:34:12.633Z,77.90
2019-05-13T06:36:41.823Z,77.20
2019-05-13T06:39:12.406Z,76.20
2019-05-13T06:41:41.676Z,77.40
2019-05-13T06:44:12.210Z,78.70
2019-05-13T06:46:42.315Z,77.90
2019-05-13T06:49:12.194Z,78.10
2019-05-13T06:51:41.799Z,80.10
2019-05-13T06:54:11.254Z,78.50
2019-05-13T06:56:42.625Z,77.90
2019-05-13T06:59:11.881Z,79.40
2019-05-13T07:01:42.348Z,78.50
2019-05-13T07:04:11.644Z,78.90
2019-05-13T07:06:41.814Z,78.40
2019-05-13T07:09:12.032Z,77.40
2019-05-13T07:11:41.650Z,75.50
2019-05-13T07:14:12.784Z,74.90
2019-05-13T07:16:42.141Z,74.20
2019-05-13T07:19:11.742Z,75.30
2019-05-13T07:21:41.768Z,75.20
2019-05-13T07:24:12.764Z,73.50
2019-05-13T07:26:41.884Z,74.70
2019-05-13T07:29:12.790Z,74.30
2019-05-13T07:31:42.216Z,72.20
2019-05-13T07:34:11.620Z,73.00
2019-05-13T07:36:42.147Z,71.70
2019-05-13T07:39:11.916Z,73.60
2019-05-13T07:41:42.944Z,69.60
2019-05-13T07:44:11.862Z,72.10
2019-05-13T07:46:42.747Z,71.80
2019-05-13T07:49:11.953Z,69.50
2019-05-13T07:51:42.102Z,70.00
2019-05-13T07:54:11.412Z,70.60
2019-05-13T07:56:42.392Z,69.90
2019-05-13T07:59:12.253Z,69.90
2019-05-13T08:01:41.734Z,69.10
2019-05-13T08:04:21.850Z,68.60
2019-05-13T08:06:41.642Z,67.20
2019-05-13T08:09:12.607Z,65.90
2019-05-13T08:11:59.948Z,66.10
2019-05-13T08:14:12.411Z,66.40
2019-05-13T08:16:42.679Z,65.60
2019-05-13T08:19:12.346Z,65.30
2019-05-13T08:21:41.847Z,66.30
2019-05-13T08:24:11.923Z,66.90
2019-05-13T08:26:44.951Z,65.60
2019-05-13T08:29:11.492Z,66.20
2019-05-13T08:31:41.248Z,63.30
2019-05-13T08:34:11.825Z,61.80
2019-05-13T08:36:42.758Z,62.00
2019-05-13T08:39:12.767Z,63.10
2019-05-13T08:41:42.367Z,61.90
2019-05-13T08:44:12.316Z,62.80
2019-05-13T08:46:41.532Z,62.00
2019-05-13T08:49:11.839Z,59.70
2019-05-13T08:51:42.119Z,61.00
2019-05-13T08:54:11.497Z,61.70
2019-05-13T08:56:41.706Z,61.90
2019-05-13T08:59:11.518Z,59.70
2019-05-13T09:01:42.448Z,58.90
2019-05-13T09:04:11.944Z,60.90
2019-05-13T09:06:41.879Z,58.60
2019-05-13T09:09:11.510Z,58.60
2019-05-13T09:11:42.165Z,58.60
2019-05-13T09:14:11.244Z,57.30
2019-05-13T09:16:41.857Z,57.10
2019-05-13T09:19:15.781Z,57.30
2019-05-13T09:21:42.311Z,57.20
2019-05-13T09:24:23.989Z,56.90
2019-05-13T09:26:42.119Z,55.50
2019-05-13T09:29:11.868Z,56.40
2019-05-13T09:31:41.549Z,56.50
2019-05-13T09:34:12.152Z,55.10
2019-05-13T09:36:41.732Z,54.70
2019-05-13T09:39:12.670Z,54.10
2019-05-13T09:41:43.892Z,53.40
2019-05-13T09:44:12.332Z,51.70
2019-05-13T09:46:42.560Z,50.40
2019-05-13T09:49:19.069Z,51.30
2019-05-13T09:51:41.757Z,52.20
2019-05-13T09:54:11.731Z,49.90
2019-05-13T09:56:41.319Z,47.90
2019-05-13T09:59:11.777Z,47.80
2019-05-13T10:01:42.443Z,49.30
2019-05-13T10:04:11.898Z,49.30
2019-05-13T10:06:42.126Z,50.20
2019-05-13T10:09:12.600Z,48.80
2019-05-13T10:11:40.910Z,46.30
2019-05-13T10:14:11.634Z,45.20
2019-05-13T10:16:42.097Z,45.80
2019-05-13T10:19:12.370Z,46.70
2019-05-13T10:21:41.994Z,45.90
2019-05-13T10:24:12.576Z,46.20
2019-05-13T10:29:11.953Z,45.40
2019-05-13T10:31:42.013Z,45.20
2019-05-13T10:34:13.627Z,45.60
2019-05-13T10:36:42.086Z,43.70
2019-05-13T10:39:11.902Z,45.30
2019-05-13T10:41:42.364Z,45.30
2019-05-13T10:44:12.162Z,45.70
2019-05-13T10:46:42.538Z,45.10
2019-05-13T10:49:12.314Z,44.90
2019-05-13T10:51:41.771Z,44.20
2019-05-13T10:54:10.589Z,43.10
2019-05-13T10:56:39.212Z,41.50
2019-05-13T10:59:07.632Z,41.30
2019-05-13T11:01:36.058Z,41.80
2019-05-13T11:04:04.493Z,41.00
2019-05-13T11:06:32.905Z,41.70
2019-05-13T11:09:02.256Z,42.20
2019-05-13T11:11:32.976Z,41.50
2019-05-13T11:14:10.644Z,39.80
2019-05-13T11:16:31.077Z,42.20
2019-05-13T11:19:02.581Z,42.90
2019-05-13T11:21:32.076Z,44.60
2019-05-13T11:24:02.744Z,43.70
2019-05-13T11:26:35.991Z,43.10
2019-05-13T11:29:02.644Z,41.60
2019-05-13T11:31:32.872Z,44.30
2019-05-13T11:34:02.058Z,43.80
2019-05-13T11:36:33.371Z,44.00
2019-05-13T11:39:02.952Z,43.70
2019-05-13T11:41:32.594Z,43.60
2019-05-13T11:44:12.738Z,43.20
2019-05-13T11:46:33.230Z,41.80
2019-05-13T11:49:02.557Z,40.50
2019-05-13T11:51:31.981Z,41.90
2019-05-13T11:54:02.443Z,40.70
2019-05-13T11:56:33.720Z,40.10
2019-05-13T11:59:04.257Z,40.60
2019-05-13T12:01:33.444Z,40.10
2019-05-13T12:04:02.751Z,38.90
2019-05-13T12:06:33.949Z,38.90
2019-05-13T12:09:03.146Z,36.80
2019-05-13T12:11:33.316Z,37.70
2019-05-13T12:14:02.119Z,38.70
2019-05-13T12:16:35.030Z,36.90
2019-05-13T12:19:03.514Z,36.10
2019-05-13T12:21:32.258Z,35.80
2019-05-13T12:24:10.501Z,37.20
2019-05-13T12:26:33.861Z,34.30
2019-05-13T12:29:02.983Z,33.60
2019-05-13T12:31:33.618Z,35.00
2019-05-13T12:34:03.610Z,35.30
2019-05-13T12:36:32.999Z,34.50
2019-05-13T12:39:01.638Z,36.80
2019-05-13T12:41:33.023Z,37.40
2019-05-13T12:44:01.777Z,35.50
2019-05-13T12:46:30.575Z,35.30
2019-05-13T12:48:58.993Z,35.20
2019-05-13T12:51:27.816Z,34.50
2019-05-13T12:53:56.251Z,35.70
2019-05-13T12:56:24.736Z,35.90
2019-05-13T12:58:53.185Z,37.30
2019-05-13T13:01:23.959Z,35.10
2019-05-13T13:03:51.826Z,35.20
2019-05-13T13:06:31.400Z,32.30
2019-05-13T13:08:51.013Z,35.40
2019-05-13T13:11:22.515Z,33.20
2019-05-13T13:13:58.693Z,33.80
2019-05-13T13:16:21.584Z,30.20
2019-05-13T13:18:52.177Z,30.50
2019-05-13T13:21:23.422Z,31.30
2019-05-13T13:23:50.336Z,31.60
2019-05-13T13:26:21.499Z,32.10
2019-05-13T13:28:48.917Z,33.80
2019-05-13T13:31:17.349Z,31.50
2019-05-13T13:33:45.923Z,31.40
2019-05-13T13:36:16.130Z,32.90
2019-05-13T13:38:44.927Z,32.90
2019-05-13T13:41:21.839Z,34.30
2019-05-13T13:43:43.492Z,33.60
2019-05-13T13:46:32.798Z,33.90
2019-05-13T13:48:43.811Z,32.00
2019-05-13T13:53:44.534Z,31.60
2019-05-13T13:56:14.740Z,31.80
2019-05-13T13:58:44.018Z,33.00
2019-05-13T14:01:18.568Z,32.30
2019-05-13T14:03:46.124Z,32.00
2019-05-13T14:06:13.154Z,32.50
2019-05-13T14:06:25.608Z,46.40
2019-05-13T14:06:58.943Z,32.00
2019-05-13T14:08:41.707Z,32.70
2019-05-13T14:11:11.719Z,32.70
2019-05-13T14:13:42.479Z,31.40
2019-05-13T14:16:24.596Z,31.80
2019-05-13T14:18:42.080Z,31.50
2019-05-13T14:21:10.718Z,32.90
2019-05-13T14:23:39.479Z,33.70
2019-05-13T14:26:07.921Z,32.60
2019-05-13T14:28:36.346Z,32.00
2019-05-13T14:31:04.941Z,32.40
2019-05-13T14:33:35.627Z,30.40
2019-05-13T14:36:03.596Z,31.20
2019-05-13T14:38:33.821Z,31.70
2019-05-13T14:41:03.486Z,33.10
2019-05-13T14:43:32.328Z,32.60
2019-05-13T14:46:02.360Z,31.80
2019-05-13T14:48:32.845Z,32.50
2019-05-13T14:51:01.924Z,32.20
2019-05-13T14:53:32.180Z,32.00
2019-05-13T14:56:03.008Z,32.00
2019-05-13T14:58:32.563Z,30.90
2019-05-13T15:01:14.819Z,29.80
2019-05-13T15:03:32.654Z,30.20
2019-05-13T15:06:01.589Z,30.40
2019-05-13T15:08:32.965Z,31.30
2019-05-13T15:11:01.880Z,31.20
2019-05-13T15:13:31.944Z,29.70
2019-05-13T15:16:01.086Z,27.70
2019-05-13T15:18:32.933Z,26.90
2019-05-13T15:21:02.001Z,26.30
2019-05-13T15:23:31.691Z,25.80
2019-05-13T15:26:02.277Z,25.70
2019-05-13T15:28:31.653Z,26.40
2019-05-13T15:31:00.416Z,26.00
2019-05-13T15:33:29.117Z,25.40
2019-05-13T15:35:57.544Z,24.90
2019-05-13T15:38:26.190Z,25.30
2019-05-13T15:40:54.647Z,26.80
2019-05-13T15:43:23.222Z,28.00
2019-05-13T15:45:51.667Z,28.60
2019-05-13T15:48:22.262Z,30.00
2019-05-13T15:50:51.330Z,29.60
2019-05-13T15:53:21.389Z,28.10
2019-05-13T15:55:51.684Z,28.10
2019-05-13T15:58:37.708Z,29.00
2019-05-13T16:00:52.407Z,29.00
2019-05-13T16:03:20.674Z,28.30
2019-05-13T16:05:51.506Z,28.80
2019-05-13T16:08:19.277Z,28.20
2019-05-13T16:10:47.814Z,28.00
2019-05-13T16:13:16.324Z,27.70
2019-05-13T16:15:44.761Z,27.20
2019-05-13T16:18:13.285Z,26.30
2019-05-13T16:20:44.490Z,26.20
2019-05-13T16:23:12.324Z,25.90
2019-05-13T16:25:41.786Z,24.60
2019-05-13T16:28:10.406Z,24.40
2019-05-13T16:30:38.934Z,24.90
2019-05-13T16:33:07.365Z,23.60
2019-05-13T16:35:35.805Z,22.30
2019-05-13T16:38:04.236Z,23.00
2019-05-13T16:40:36.485Z,23.10
2019-05-13T16:43:02.815Z,23.10
2019-05-13T16:45:31.688Z,24.70
2019-05-13T16:48:03.863Z,25.20
2019-05-13T16:50:31.295Z,26.60
2019-05-13T16:53:01.951Z,27.90
2019-05-13T16:55:32.629Z,27.20
2019-05-13T16:58:01.978Z,27.10
2019-05-13T17:00:31.733Z,27.10
2019-05-13T17:03:02.355Z,27.30
2019-05-13T17:05:32.466Z,28.40
2019-05-13T17:08:02.110Z,28.50
2019-05-13T17:10:31.570Z,29.10
2019-05-13T17:13:02.981Z,28.60
2019-05-13T17:15:31.209Z,28.10
2019-05-13T17:18:09.168Z,28.70
2019-05-13T17:20:32.057Z,28.90
2019-05-13T17:23:01.852Z,28.80
2019-05-13T17:25:30.524Z,29.50
2019-05-13T17:27:58.923Z,29.80
2019-05-13T17:30:27.412Z,30.20
2019-05-13T17:32:55.815Z,30.30
2019-05-13T17:35:24.259Z,31.70
2019-05-13T17:37:53.041Z,31.50
2019-05-13T17:40:22.469Z,31.50
2019-05-13T17:42:51.212Z,31.60
2019-05-13T17:45:21.849Z,31.50
2019-05-13T17:47:51.849Z,32.00
2019-05-13T17:50:22.271Z,33.10
2019-05-13T17:52:51.399Z,33.20
2019-05-13T17:55:22.090Z,33.80
2019-05-13T17:57:50.181Z,33.80
2019-05-13T18:00:21.436Z,35.00
2019-05-13T18:02:51.238Z,34.80
2019-05-13T18:05:19.415Z,35.70
2019-05-13T18:07:47.889Z,35.10
2019-05-13T18:10:16.642Z,35.20
2019-05-13T18:12:45.098Z,35.90
2019-05-13T18:15:13.860Z,35.30
2019-05-13T18:17:42.317Z,34.90
2019-05-13T18:20:11.442Z,34.20
2019-05-13T18:22:42.014Z,34.80
2019-05-13T18:25:11.954Z,35.70
2019-05-13T18:27:41.559Z,36.00
2019-05-13T18:30:11.634Z,35.90
2019-05-13T18:32:40.198Z,37.60
2019-05-13T18:35:08.873Z,37.30
2019-05-13T18:37:37.387Z,38.40
2019-05-13T18:40:06.298Z,36.80
2019-05-13T18:42:34.749Z,37.20
2019-05-13T18:45:03.769Z,37.20
2019-05-13T18:47:32.255Z,37.60
2019-05-13T18:50:02.369Z,37.90
2019-05-13T18:52:31.375Z,38.60
2019-05-13T18:55:02.043Z,38.30
2019-05-13T18:57:31.866Z,39.00
2019-05-13T19:00:02.046Z,39.30
2019-05-13T19:02:32.018Z,39.70
2019-05-13T19:05:01.517Z,40.20
2019-05-13T19:07:31.540Z,41.30
2019-05-13T19:10:02.450Z,41.90
2019-05-13T19:12:31.462Z,42.60
2019-05-13T19:15:02.262Z,43.60
2019-05-13T19:17:32.156Z,46.80
2019-05-13T19:20:00.461Z,47.20
2019-05-13T19:22:28.892Z,49.40
2019-05-13T19:24:57.387Z,51.20
2019-05-13T19:27:25.798Z,53.30
2019-05-13T19:29:54.244Z,55.80
2019-05-13T19:32:22.733Z,57.80
2019-05-13T19:34:51.769Z,59.30
2019-05-13T19:37:22.407Z,61.90
2019-05-13T19:39:50.580Z,62.80
2019-05-13T19:42:19.029Z,64.50
2019-05-13T19:44:47.457Z,65.50
2019-05-13T19:47:16.053Z,67.30
2019-05-13T19:49:46.606Z,68.80
2019-05-13T19:52:14.767Z,70.30
2019-05-13T19:54:43.207Z,72.00
2019-05-13T19:57:12.073Z,73.10
2019-05-13T19:59:42.603Z,72.80
2019-05-13T20:02:12.197Z,74.40
2019-05-13T20:04:41.333Z,75.90
2019-05-13T20:07:11.844Z,75.20
2019-05-13T20:09:42.322Z,75.70
2019-05-13T20:12:11.186Z,77.20
2019-05-13T20:14:39.977Z,76.80
2019-05-13T20:17:08.474Z,76.50
2019-05-13T20:19:47.754Z,76.10
2019-05-13T20:22:07.066Z,77.70
2019-05-13T20:24:35.493Z,77.90
2019-05-13T20:27:03.946Z,78.20
2019-05-13T20:29:32.419Z,79.20
2019-05-13T20:32:01.482Z,80.20
2019-05-13T20:34:31.766Z,81.10
2019-05-13T20:37:02.071Z,82.10
2019-05-13T20:39:31.926Z,82.00
2019-05-13T20:42:01.595Z,80.40
2019-05-13T20:44:31.347Z,81.90
2019-05-13T20:47:01.567Z,82.10
2019-05-13T20:49:31.198Z,82.80
2019-05-13T20:52:00.108Z,84.20
2019-05-13T20:54:28.623Z,82.30
2019-05-13T20:56:57.153Z,82.70
2019-05-13T20:59:25.573Z,83.40
2019-05-13T21:01:54.008Z,83.60
2019-05-13T21:04:22.500Z,83.80
2019-05-13T21:06:51.599Z,84.40
2019-05-13T21:09:20.211Z,84.50
2019-05-13T21:11:48.637Z,85.00
2019-05-13T21:14:17.059Z,85.20
2019-05-13T21:16:45.480Z,83.80
2019-05-13T21:19:13.921Z,84.30
2019-05-13T21:21:42.331Z,84.90
2019-05-13T21:24:10.781Z,85.50
2019-05-13T21:26:39.263Z,86.00
2019-05-13T21:29:07.698Z,87.60
2019-05-13T21:31:36.122Z,88.50
2019-05-13T21:34:04.643Z,88.60
2019-05-13T21:36:33.037Z,89.60
2019-05-13T21:39:01.802Z,89.70
2019-05-13T21:41:31.665Z,90.10
2019-05-13T21:44:01.307Z,90.10
2019-05-13T21:46:29.975Z,90.10
2019-05-13T21:48:58.541Z,90.30
2019-05-13T21:51:27.039Z,90.20
2019-05-13T21:53:55.471Z,90.30
2019-05-13T21:56:23.910Z,90.50
2019-05-13T21:58:52.366Z,90.80
2019-05-13T22:01:23.226Z,91.00
2019-05-13T22:03:51.496Z,90.80
2019-05-13T22:06:21.797Z,90.80
2019-05-13T22:08:51.807Z,90.90
2019-05-13T22:11:22.198Z,91.10
2019-05-13T22:13:51.382Z,91.40
2019-05-13T22:16:21.505Z,91.60
2019-05-13T22:18:52.203Z,91.60
2019-05-13T22:21:20.223Z,91.50
2019-05-13T22:23:48.648Z,91.40
2019-05-13T22:26:17.071Z,91.40
2019-05-13T22:28:45.480Z,91.50
2019-05-13T22:31:13.973Z,91.80
2019-05-13T22:33:45.118Z,92.30
2019-05-13T22:36:12.569Z,92.70
2019-05-13T22:38:42.613Z,92.90
2019-05-13T22:41:11.721Z,92.80
2019-05-13T22:43:52.346Z,92.90
2019-05-13T22:46:13.853Z,93.00
2019-05-13T22:48:41.940Z,92.80
2019-05-13T22:51:11.745Z,92.90
2019-05-13T22:53:42.232Z,93.10
2019-05-13T22:56:10.453Z,93.40
2019-05-13T22:58:41.096Z,93.60
2019-05-13T23:01:11.384Z,93.40
2019-05-13T23:03:41.065Z,93.90
2019-05-13T23:06:09.322Z,94.00
2019-05-13T23:08:37.760Z,94.20
2019-05-13T23:11:06.198Z,94.20
2019-05-13T23:13:34.625Z,94.20
2019-05-13T23:16:03.049Z,94.30
2019-05-13T23:18:31.787Z,94.10
2019-05-13T23:21:02.303Z,94.00
2019-05-13T23:23:30.670Z,94.10
2019-05-13T23:25:59.077Z,94.10
2019-05-13T23:28:27.508Z,94.50
2019-05-13T23:30:55.926Z,94.80
2019-05-13T23:33:24.357Z,95.10
2019-05-13T23:35:52.789Z,95.20
2019-05-13T23:38:21.521Z,95.10
2019-05-13T23:40:51.589Z,95.00
2019-05-13T23:43:21.718Z,95.00
2019-05-13T23:45:51.102Z,95.10
2019-05-13T23:48:21.586Z,95.00
2019-05-13T23:50:51.861Z,95.10
2019-05-13T23:53:21.827Z,95.20
2019-05-13T23:55:52.028Z,95.40
2019-05-13T23:58:21.735Z,95.30
